Time;durP1;ratioP1;P1;durP2;ratioP2;P2;SDS_P1;SDS_P2;PMS_P1;PMS_P2;Temp;Humidity;BMP_temperature;BMP_pressure;BME280_temperature;BME280_humidity;BME280_pressure;Samples;Min_cycle;Max_cycle;Signal;HPM_P1;HPM_P2
2022/11/23 00:01:33;;;;;;;;;;;8.10;91.40;;;8.47;59.30;97377.66;4998958;28;124286;-75
2022/11/23 00:04:05;;;;;;;;;;;8.10;91.40;;;8.46;59.12;97373.25;4995999;28;114637;-75
2022/11/23 00:06:32;;;;;;;;;;;8.00;91.40;;;8.44;59.15;97372.81;4998322;28;114048;-74
2022/11/23 00:08:58;;;;;;;;;;;8.00;91.40;;;8.43;59.23;97371.19;5027929;27;123237;-75
2022/11/23 00:11:26;;;;;;;;;;;8.10;91.40;;;8.43;58.89;97371.19;5000280;28;123837;-75
2022/11/23 00:13:52;;;;;;;;;;;8.00;91.40;;;8.40;59.26;97373.44;4994258;28;115360;-75
2022/11/23 00:16:21;;;;;;;;;;;8.00;91.40;;;8.40;59.07;97376.22;4994029;28;115469;-74
2022/11/23 00:18:47;;;;;;;;;;;8.00;91.40;;;8.38;59.29;97372.97;5007585;28;124260;-75
2022/11/23 00:21:16;;;;;;;;;;;8.00;91.40;;;8.37;59.48;97374.09;5006868;28;124820;-75
2022/11/23 00:23:42;;;;;;;;;;;8.00;91.40;;;8.35;59.23;97383.81;5008104;28;114621;-75
2022/11/23 00:26:09;;;;;;;;;;;7.90;91.40;;;8.32;59.23;97371.53;5008391;28;114597;-75
2022/11/23 00:28:39;;;;;;;;;;;7.90;91.40;;;8.28;59.34;97370.59;5007553;28;124231;-73
2022/11/23 00:31:06;;;;;;;;;;;7.90;91.40;;;8.26;59.24;97383.06;5011726;28;124641;-75
2022/11/23 00:33:33;;;;;;;;;;;7.90;91.40;;;8.23;59.23;97379.03;5026556;28;113983;-74
2022/11/23 00:36:01;;;;;;;;;;;7.80;91.40;;;8.21;58.92;97381.31;5008239;28;113763;-74
2022/11/23 00:38:27;;;;;;;;;;;7.80;91.40;;;8.19;59.43;97378.91;5006848;28;124343;-75
2022/11/23 00:41:02;;;;;;;;;;;7.80;91.40;;;8.17;59.33;97386.69;5007586;28;123867;-75
2022/11/23 00:43:29;;;;;;;;;;;7.80;91.40;;;8.14;58.92;97386.50;5025263;28;113227;-74
2022/11/23 00:46:10;;;;;;;;;;;7.70;91.40;;;8.13;59.29;97380.22;5023482;27;112929;-74
2022/11/23 00:48:36;;;;;;;;;;;7.80;91.50;;;8.11;59.50;97381.69;4999977;28;124110;-75
2022/11/23 00:51:04;;;;;;;;;;;7.70;91.50;;;8.09;59.28;97383.97;5006598;28;124094;-74
2022/11/23 00:53:30;;;;;;;;;;;7.70;91.50;;;8.08;59.61;97376.84;5007386;28;114788;-75
2022/11/23 00:55:57;;;;;;;;;;;7.70;91.50;;;8.05;59.59;97378.31;5008480;28;113603;-74
2022/11/23 00:58:24;;;;;;;;;;;7.70;91.50;;;8.05;59.42;97372.00;5007486;28;125199;-73
2022/11/23 01:01:18;;;;;;;;;;;7.60;91.50;;;8.06;59.60;97373.59;5013368;28;123058;-74
2022/11/23 01:03:50;;;;;;;;;;;7.70;91.60;;;8.00;59.81;97377.69;5009631;28;115237;-74
2022/11/23 01:06:21;;;;;;;;;;;7.60;91.60;;;7.96;59.90;97386.59;5009889;28;114898;-74
2022/11/23 01:08:58;;;;;;;;;;;7.60;91.60;;;7.92;59.81;97380.13;5005173;28;123986;-74
2022/11/23 01:11:27;;;;;;;;;;;7.60;91.60;;;7.89;59.88;97372.56;5014908;28;123970;-75
2022/11/23 01:13:54;;;;;;;;;;;7.50;91.60;;;7.88;59.96;97373.69;5003694;28;114652;-74
2022/11/23 01:16:20;;;;;;;;;;;7.50;91.70;;;7.91;59.93;97378.53;5025219;28;112780;-74
2022/11/23 01:18:46;;;;;;;;;;;7.50;91.80;;;7.93;60.02;97373.53;4998412;28;124403;-74
2022/11/23 01:21:12;;;;;;;;;;;7.50;91.80;;;8.00;60.00;97380.44;5007758;28;124185;-74
2022/11/23 01:23:39;;;;;;;;;;;7.60;92.00;;;8.02;59.83;97378.19;5006212;28;114607;-74
2022/11/23 01:26:10;;;;;;;;;;;7.60;91.80;;;8.08;59.79;97387.84;5004197;28;113896;-75
2022/11/23 01:28:38;;;;;;;;;;;7.60;91.80;;;8.09;59.71;97383.97;5025292;27;123593;-74
2022/11/23 01:31:10;;;;;;;;;;;7.60;91.80;;;8.11;59.79;97387.19;5010741;28;123851;-74
2022/11/23 01:33:36;;;;;;;;;;;7.70;91.80;;;8.14;59.58;97381.84;5006217;28;113576;-74
2022/11/23 01:36:10;;;;;;;;;;;7.70;91.80;;;8.15;59.39;97377.94;5006824;28;113991;-74
2022/11/23 01:38:36;;;;;;;;;;;7.70;91.70;;;8.13;59.45;97387.66;5011092;28;123702;-75
2022/11/23 01:41:04;;;;;;;;;;;7.70;91.70;;;8.11;59.52;97377.00;5008090;28;123101;-74
2022/11/23 01:43:30;;;;;;;;;;;7.70;91.70;;;8.12;59.44;97388.81;5007556;28;114469;-74
2022/11/23 01:46:01;;;;;;;;;;;7.70;91.70;;;8.12;59.47;97383.31;5038850;27;112987;-74
2022/11/23 01:48:37;;;;;;;;;;;7.70;91.70;;;8.10;59.49;97393.84;4998866;28;124159;-74
2022/11/23 01:51:05;;;;;;;;;;;7.60;91.60;;;8.05;59.45;97394.81;5008918;28;124784;-74
2022/11/23 01:53:32;;;;;;;;;;;7.70;91.70;;;8.05;59.60;97388.50;5001109;28;115499;-74
2022/11/23 01:56:19;;;;;;;;;;;7.60;91.60;;;8.07;59.53;97394.50;5002653;28;115402;-74
2022/11/23 01:58:49;;;;;;;;;;;7.60;91.70;;;8.07;59.37;97397.25;5010806;28;124880;-75
2022/11/23 02:01:16;;;;;;;;;;;7.60;91.70;;;8.08;59.93;97390.59;4991201;28;123944;-74
2022/11/23 02:03:46;;;;;;;;;;;7.60;91.70;;;8.09;59.66;97393.03;5006758;28;114496;-74
2022/11/23 02:06:19;;;;;;;;;;;7.70;91.80;;;8.15;59.72;97396.41;5005670;28;113725;-73
2022/11/23 02:08:46;;;;;;;;;;;7.70;91.80;;;8.16;59.68;97395.25;5009280;28;125613;-74
2022/11/23 02:11:14;;;;;;;;;;;7.70;91.80;;;8.17;59.62;97402.38;5007760;28;123835;-74
2022/11/23 02:13:44;;;;;;;;;;;7.70;91.80;;;8.21;59.46;97403.31;5005615;28;114124;-74
2022/11/23 02:16:10;;;;;;;;;;;7.70;91.80;;;8.23;59.54;97395.56;5007678;28;113662;-74
2022/11/23 02:18:40;;;;;;;;;;;7.80;91.80;;;8.24;59.36;97402.66;5000914;28;124199;-74
2022/11/23 02:21:06;;;;;;;;;;;7.80;91.70;;;8.25;59.57;97397.94;5014783;28;123661;-75
2022/11/23 02:23:58;;;;;;;;;;;7.80;91.70;;;8.24;59.29;97399.91;5011147;28;113309;-74
2022/11/23 02:26:30;;;;;;;;;;;7.80;91.70;;;8.22;59.50;97398.63;5037724;27;111766;-74
2022/11/23 02:29:01;;;;;;;;;;;7.80;91.70;;;8.24;59.33;97397.16;4995209;28;124406;-74
2022/11/23 02:31:27;;;;;;;;;;;7.80;91.70;;;8.25;59.53;97404.28;5008189;28;123841;-74
2022/11/23 02:33:53;;;;;;;;;;;7.80;91.80;;;8.28;59.44;97402.81;5009874;28;114658;-75
2022/11/23 02:36:39;;;;;;;;;;;7.80;91.70;;;8.32;59.37;97396.28;5009017;28;113925;-74
2022/11/23 02:39:11;;;;;;;;;;;7.80;91.70;;;8.33;59.32;97406.19;5012986;28;123385;-74
2022/11/23 02:41:43;;;;;;;;;;;7.80;91.70;;;8.33;59.25;97405.38;5008992;28;124247;-74
2022/11/23 02:44:36;;;;;;;;;;;7.90;91.70;;;8.36;59.22;97411.03;5007777;28;115489;-74
2022/11/23 02:47:03;;;;;;;;;;;7.90;91.70;;;8.34;59.61;97407.78;5001854;28;114715;-74
2022/11/23 02:49:30;;;;;;;;;;;7.90;91.70;;;8.37;59.38;97412.63;5044308;27;123669;-74
2022/11/23 02:51:56;;;;;;;;;;;7.90;91.70;;;8.39;59.28;97404.88;5009618;28;123874;-74
2022/11/23 02:54:22;;;;;;;;;;;7.90;91.70;;;8.41;59.04;97407.31;5009469;28;114459;-74
2022/11/23 02:56:48;;;;;;;;;;;7.90;91.70;;;8.42;59.11;97405.34;5008581;28;115773;-74
2022/11/23 02:59:15;;;;;;;;;;;8.00;91.70;;;8.42;59.05;97399.84;5010122;28;124348;-74
2022/11/23 03:01:41;;;;;;;;;;;8.00;91.70;;;8.42;58.96;97397.09;5002207;28;124102;-74
2022/11/23 03:04:08;;;;;;;;;;;7.90;91.60;;;8.44;58.93;97411.34;5003245;28;114100;-74
2022/11/23 03:06:34;;;;;;;;;;;8.00;91.60;;;8.44;59.04;97412.16;5012782;28;113813;-74
2022/11/23 03:09:01;;;;;;;;;;;8.00;91.60;;;8.45;59.10;97412.94;5008755;28;124129;-74
2022/11/23 03:11:27;;;;;;;;;;;8.00;91.60;;;8.45;58.88;97413.75;5011988;28;123895;-75
2022/11/23 03:13:53;;;;;;;;;;;8.00;91.60;;;8.47;58.90;97402.41;5001850;28;113827;-75
2022/11/23 03:16:20;;;;;;;;;;;8.00;91.60;;;8.48;58.96;97410.31;5011963;28;113579;-75
2022/11/23 03:18:46;;;;;;;;;;;8.00;91.60;;;8.48;58.89;97410.31;4995553;28;124950;-74
2022/11/23 03:21:12;;;;;;;;;;;8.00;91.60;;;8.50;59.06;97410.00;5009390;28;123915;-75
2022/11/23 03:23:39;;;;;;;;;;;8.00;91.60;;;8.49;58.95;97417.47;5009602;28;114073;-76
2022/11/23 03:26:05;;;;;;;;;;;8.00;91.60;;;8.50;58.83;97410.00;5011894;28;114163;-74
2022/11/23 03:28:31;;;;;;;;;;;8.00;91.60;;;8.49;58.93;97416.63;5008762;28;123912;-75
2022/11/23 03:30:57;;;;;;;;;;;8.00;91.60;;;8.49;58.99;97424.88;5010078;28;123991;-75
2022/11/23 03:33:24;;;;;;;;;;;8.00;91.60;;;8.46;58.97;97420.84;5007832;28;115231;-76
2022/11/23 03:35:50;;;;;;;;;;;8.00;91.60;;;8.46;58.74;97420.84;5009567;28;114756;-75
2022/11/23 03:38:16;;;;;;;;;;;8.00;91.60;;;8.46;58.79;97425.56;5008452;28;125138;-75
2022/11/23 03:40:44;;;;;;;;;;;8.00;91.60;;;8.44;58.72;97423.16;5008478;28;124574;-74
2022/11/23 03:43:11;;;;;;;;;;;8.00;91.60;;;8.43;58.79;97423.47;5008967;28;114150;-75
2022/11/23 03:45:37;;;;;;;;;;;7.90;91.60;;;8.43;58.81;97423.47;4998021;28;113635;-75
2022/11/23 03:48:04;;;;;;;;;;;7.90;91.50;;;8.42;58.88;97430.94;5003456;28;122301;-74
2022/11/23 03:50:31;;;;;;;;;;;7.90;91.50;;;8.41;58.90;97423.81;5029884;27;123592;-75
2022/11/23 03:52:58;;;;;;;;;;;7.90;91.50;;;8.42;58.73;97413.63;5008786;28;114043;-75
2022/11/23 03:55:25;;;;;;;;;;;8.00;91.50;;;8.42;58.85;97413.63;5007299;28;113689;-75
2022/11/23 03:57:58;;;;;;;;;;;8.00;91.50;;;8.43;58.66;97409.72;5006066;28;124038;-74
2022/11/23 04:00:28;;;;;;;;;;;7.90;91.50;;;8.44;58.75;97408.59;5007702;28;124206;-74
2022/11/23 04:02:55;;;;;;;;;;;7.90;91.50;;;8.47;58.80;97405.16;5000004;28;114631;-75
2022/11/23 04:05:21;;;;;;;;;;;8.00;91.50;;;8.48;58.59;97401.25;5012583;28;114663;-75
2022/11/23 04:07:48;;;;;;;;;;;8.00;91.50;;;8.50;58.39;97401.75;5012223;28;124123;-75
2022/11/23 04:10:16;;;;;;;;;;;8.00;91.40;;;8.48;58.22;97404.00;5014543;28;123134;-75
2022/11/23 04:12:42;;;;;;;;;;;8.00;91.40;;;8.45;58.25;97397.22;5011790;28;114345;-75
2022/11/23 04:15:46;;;;;;;;;;;8.00;91.30;;;8.45;57.94;97397.22;5014129;28;113960;-74
2022/11/23 04:18:14;;;;;;;;;;;7.90;91.20;;;8.40;58.12;97395.47;5000015;28;124103;-75
2022/11/23 04:20:40;;;;;;;;;;;7.90;91.20;;;8.40;58.00;97397.41;5007722;28;123991;-75
2022/11/23 04:23:07;;;;;;;;;;;7.90;91.20;;;8.42;58.35;97388.84;5008895;28;115254;-75
2022/11/23 04:25:33;;;;;;;;;;;7.90;91.20;;;8.44;57.99;97392.06;5011650;28;114718;-77
2022/11/23 04:27:59;;;;;;;;;;;7.90;91.20;;;8.45;57.97;97388.97;5008272;28;124998;-75
2022/11/23 04:30:26;;;;;;;;;;;8.00;91.20;;;8.47;57.96;97388.66;5007050;28;123875;-74
2022/11/23 04:32:52;;;;;;;;;;;7.90;91.10;;;8.47;57.86;97388.66;5007925;28;114355;-75
2022/11/23 04:35:19;;;;;;;;;;;8.00;91.10;;;8.43;57.84;97387.69;5022711;28;112865;-75
2022/11/23 04:37:45;;;;;;;;;;;7.90;91.00;;;8.39;57.76;97385.59;5010692;28;124023;-75
2022/11/23 04:40:12;;;;;;;;;;;7.90;91.00;;;8.38;57.83;97392.22;5008148;28;124252;-75
2022/11/23 04:42:39;;;;;;;;;;;7.90;91.00;;;8.40;57.63;97389.97;5010010;28;113997;-75
2022/11/23 04:45:26;;;;;;;;;;;7.90;91.00;;;8.42;58.06;97397.09;5007564;28;113739;-75
2022/11/23 04:47:52;;;;;;;;;;;7.90;91.00;;;8.41;57.98;97399.06;4948939;28;125523;-75
2022/11/23 04:50:18;;;;;;;;;;;7.90;91.00;;;8.43;57.84;97393.19;4948739;28;124087;-75
2022/11/23 04:52:44;;;;;;;;;;;7.90;91.00;;;8.44;57.77;97400.34;4948250;28;114046;-75
2022/11/23 04:55:11;;;;;;;;;;;8.10;91.00;;;8.42;57.62;97391.59;4949130;28;114115;-74
2022/11/23 04:57:37;;;;;;;;;;;7.90;90.90;;;8.39;57.84;97382.06;4948255;28;124394;-74
2022/11/23 05:00:04;;;;;;;;;;;7.90;90.90;;;8.37;57.51;97385.09;4932041;28;123506;-75
2022/11/23 05:02:30;;;;;;;;;;;7.90;90.90;;;8.35;57.67;97378.31;4949095;28;114066;-75
2022/11/23 05:04:56;;;;;;;;;;;7.90;90.90;;;8.32;57.57;97388.03;4946945;28;113727;-75
2022/11/23 05:07:24;;;;;;;;;;;7.90;90.90;;;8.31;57.80;97396.66;4945604;28;124023;-75
2022/11/23 05:09:50;;;;;;;;;;;7.80;90.90;;;8.27;57.69;97393.72;4947062;28;123920;-75
2022/11/23 05:12:16;;;;;;;;;;;7.80;90.80;;;8.25;57.75;97400.69;4947541;28;115462;-75
2022/11/23 05:14:43;;;;;;;;;;;9.10;91.30;;;8.24;57.85;97397.16;4945714;28;114464;-75
2022/11/23 05:17:10;;;;;;;;;;;7.80;90.80;;;8.26;57.72;97399.59;4946672;28;124088;-75
2022/11/23 05:19:39;;;;;;;;;;;7.80;90.80;;;8.26;57.45;97391.31;4951063;28;123705;-76
2022/11/23 05:22:05;;;;;;;;;;;7.80;90.80;;;8.25;57.64;97386.94;4950919;28;115179;-79
2022/11/23 05:24:31;;;;;;;;;;;7.80;90.90;;;8.23;57.76;97384.53;4961142;28;112464;-75
2022/11/23 05:26:57;;;;;;;;;;;7.80;90.90;;;8.24;57.69;97388.09;5010304;28;124707;-75
2022/11/23 05:29:24;;;;;;;;;;;7.80;90.90;;;8.22;57.82;97382.94;5033042;27;123315;-75
2022/11/23 05:31:50;;;;;;;;;;;7.80;90.90;;;8.23;57.58;97381.00;5004415;28;114162;-75
2022/11/23 05:34:16;;;;;;;;;;;7.80;90.90;;;8.22;57.72;97380.19;5007455;28;113913;-74
2022/11/23 05:36:42;;;;;;;;;;;7.80;90.90;;;8.22;57.97;97388.44;5006115;28;124131;-75
2022/11/23 05:39:09;;;;;;;;;;;7.70;90.90;;;8.23;57.96;97387.28;5009264;28;123512;-75
2022/11/23 05:41:35;;;;;;;;;;;7.70;90.90;;;8.22;57.84;97382.94;5010892;28;113321;-75
2022/11/23 05:44:01;;;;;;;;;;;7.70;90.90;;;8.23;57.63;97389.25;5010431;28;113600;-75
2022/11/23 05:46:28;;;;;;;;;;;7.70;90.90;;;8.22;57.79;97387.59;5009268;28;123196;-75
2022/11/23 05:48:54;;;;;;;;;;;7.70;90.90;;;8.22;57.95;97382.94;5007190;28;123727;-74
2022/11/23 05:51:20;;;;;;;;;;;7.70;90.90;;;8.25;57.72;97381.44;5010551;28;114553;-74
2022/11/23 05:53:47;;;;;;;;;;;7.80;91.00;;;8.26;57.82;97378.38;5009949;28;113612;-75
2022/11/23 05:56:13;;;;;;;;;;;7.80;91.00;;;8.28;57.75;97380.81;5012883;28;124836;-74
2022/11/23 05:58:39;;;;;;;;;;;7.80;91.00;;;8.28;57.84;97381.59;5010330;28;123950;-75
2022/11/23 06:01:05;;;;;;;;;;;7.80;91.00;;;8.29;57.75;97382.41;5011110;28;115613;-74
2022/11/23 06:03:32;;;;;;;;;;;7.80;91.00;;;8.31;57.76;97380.94;5002904;28;113872;-75
2022/11/23 06:05:58;;;;;;;;;;;7.80;91.00;;;8.35;57.72;97379.13;4998368;28;124175;-74
2022/11/23 06:08:24;;;;;;;;;;;7.80;90.90;;;8.37;57.64;97384.31;5009264;28;123747;-77
2022/11/23 06:10:53;;;;;;;;;;;7.90;91.00;;;8.39;57.82;97376.56;5012705;28;114176;-77
2022/11/23 06:13:20;;;;;;;;;;;7.90;90.90;;;8.38;57.63;97370.22;5013683;28;113498;-74
2022/11/23 06:15:46;;;;;;;;;;;7.90;91.00;;;8.38;57.65;97381.22;5009710;28;124195;-75
2022/11/23 06:18:12;;;;;;;;;;;7.90;90.90;;;8.39;57.76;97377.34;5004421;28;123906;-75
2022/11/23 06:20:38;;;;;;;;;;;7.90;90.90;;;8.38;57.67;97381.22;4997196;28;114146;-75
2022/11/23 06:23:05;;;;;;;;;;;7.90;91.00;;;8.39;57.80;97385.59;5008962;28;113541;-76
2022/11/23 06:25:31;;;;;;;;;;;7.90;91.00;;;8.39;57.94;97384.81;4997619;28;124056;-74
2022/11/23 06:27:59;;;;;;;;;;;7.90;91.00;;;8.39;57.93;97382.84;4999908;28;124164;-75
2022/11/23 06:30:27;;;;;;;;;;;7.90;91.00;;;8.40;57.71;97376.22;5005989;28;114983;-75
2022/11/23 06:32:53;;;;;;;;;;;7.90;91.00;;;8.42;57.90;97375.09;4997995;28;114097;-74
2022/11/23 06:35:19;;;;;;;;;;;8.00;91.00;;;8.43;57.67;97371.97;5002547;28;123459;-74
2022/11/23 06:37:50;;;;;;;;;;;7.90;91.00;;;8.45;57.84;97379.91;5033817;27;123361;-74
2022/11/23 06:40:16;;;;;;;;;;;7.90;90.90;;;8.43;57.87;97380.25;4998039;28;115003;-74
2022/11/23 06:42:42;;;;;;;;;;;7.90;90.90;;;8.44;57.74;97384.63;5003318;28;113190;-74
2022/11/23 06:45:09;;;;;;;;;;;8.00;91.00;;;8.44;57.58;97378.31;5001894;28;123341;-74
2022/11/23 06:47:35;;;;;;;;;;;7.90;90.90;;;8.45;58.79;97380.72;4995842;28;124086;-72
2022/11/23 06:50:02;;;;;;;;;;;8.00;91.30;;;8.56;60.29;97384.69;4996595;28;115439;-72
2022/11/23 06:52:28;;;;;;;;;;;8.00;92.20;;;8.73;61.14;97385.69;5000368;28;114388;-74
2022/11/23 06:54:54;;;;;;;;;;;8.10;92.80;;;8.89;61.05;97385.91;5005341;28;124749;-73
2022/11/23 06:57:21;;;;;;;;;;;8.20;93.10;;;9.00;61.53;97396.22;4991390;28;124036;-73
2022/11/23 06:59:47;;;;;;;;;;;8.30;93.40;;;9.10;60.79;97389.47;5003353;28;113791;-73
2022/11/23 07:02:14;;;;;;;;;;;8.40;93.30;;;9.14;60.49;97387.66;5006210;28;113791;-75
2022/11/23 07:04:40;;;;;;;;;;;8.40;93.10;;;9.16;60.02;97399.16;5007589;28;124085;-74
2022/11/23 07:07:07;;;;;;;;;;;8.50;92.90;;;9.14;59.60;97395.13;5004667;28;123853;-74
2022/11/23 07:09:33;;;;;;;;;;;8.50;92.60;;;9.09;58.91;97393.38;5005208;28;114519;-73
2022/11/23 07:12:00;;;;;;;;;;;8.50;92.20;;;9.07;58.54;97401.16;5006784;28;113722;-73
2022/11/23 07:14:26;;;;;;;;;;;8.50;92.00;;;9.03;58.26;97411.25;5007120;28;124241;-73
2022/11/23 07:16:52;;;;;;;;;;;8.50;91.70;;;8.99;58.07;97410.31;5024093;28;122825;-73
2022/11/23 07:19:19;;;;;;;;;;;8.40;91.50;;;8.96;57.84;97405.47;5003501;28;114440;-74
2022/11/23 07:21:45;;;;;;;;;;;8.40;91.40;;;8.94;57.62;97405.00;4998950;28;114177;-75
2022/11/23 07:24:11;;;;;;;;;;;8.40;91.30;;;8.92;57.60;97410.03;4999942;28;124091;-75
2022/11/23 07:26:38;;;;;;;;;;;8.40;91.30;;;8.89;57.24;97417.00;4993134;28;124124;-75
2022/11/23 07:29:05;;;;;;;;;;;8.30;91.00;;;8.84;57.23;97408.97;4997239;28;114350;-75
2022/11/23 07:31:31;;;;;;;;;;;8.40;91.00;;;8.81;57.14;97412.38;5005682;28;113943;-75
2022/11/23 07:33:58;;;;;;;;;;;8.30;90.90;;;8.80;57.19;97410.78;4995410;28;124305;-75
2022/11/23 07:36:24;;;;;;;;;;;8.30;90.90;;;8.79;57.33;97412.72;4998348;28;123927;-76
2022/11/23 07:38:50;;;;;;;;;;;8.30;90.90;;;8.79;57.29;97414.69;4989306;28;115809;-75
2022/11/23 07:41:16;;;;;;;;;;;8.30;90.90;;;8.78;57.22;97413.84;4999158;28;114736;-75
2022/11/23 07:43:43;;;;;;;;;;;8.30;90.90;;;8.81;57.10;97420.63;4992269;28;125077;-76
2022/11/23 07:46:09;;;;;;;;;;;8.30;90.80;;;8.82;56.99;97417.56;4996790;28;124275;-75
2022/11/23 07:48:36;;;;;;;;;;;8.30;90.80;;;8.83;56.93;97413.66;4995196;28;114079;-75
2022/11/23 07:51:02;;;;;;;;;;;8.30;90.80;;;8.84;57.06;97420.78;5026608;27;113678;-75
2022/11/23 07:53:29;;;;;;;;;;;8.30;90.80;;;8.83;57.14;97421.13;4996198;28;123076;-77
2022/11/23 07:55:57;;;;;;;;;;;8.30;90.80;;;8.83;56.83;97419.16;5009763;28;123216;-76
2022/11/23 07:58:24;;;;;;;;;;;8.30;90.70;;;8.83;56.91;97423.88;5000500;28;114452;-74
2022/11/23 08:00:50;;;;;;;;;;;8.30;90.70;;;8.81;56.70;97426.97;4995272;28;113715;-76
2022/11/23 08:03:16;;;;;;;;;;;8.30;90.70;;;8.82;57.03;97425.81;4987599;28;124301;-75
2022/11/23 08:05:43;;;;;;;;;;;8.30;90.70;;;8.82;56.81;97433.28;5030129;27;124054;-74
2022/11/23 08:08:09;;;;;;;;;;;8.30;90.60;;;8.83;56.60;97424.66;5009285;28;113965;-78
2022/11/23 08:10:35;;;;;;;;;;;8.30;90.60;;;8.87;56.96;97435.84;5003891;28;112102;-74
2022/11/23 08:13:05;;;;;;;;;;;8.40;90.70;;;8.91;56.85;97431.25;5025131;28;123191;-73
2022/11/23 08:15:32;;;;;;;;;;;8.40;90.70;;;8.94;56.69;97429.78;5003537;28;123919;-74
2022/11/23 08:18:01;;;;;;;;;;;8.40;90.70;;;8.96;57.06;97425.56;4987589;28;114417;-74
2022/11/23 08:20:28;;;;;;;;;;;8.40;90.70;;;8.99;56.91;97430.38;4992555;28;113865;-76
2022/11/23 08:22:55;;;;;;;;;;;8.50;90.80;;;9.03;56.73;97425.03;4988342;28;124057;-75
2022/11/23 08:25:25;;;;;;;;;;;8.50;90.70;;;9.05;56.43;97426.31;4994262;27;124522;-74
2022/11/23 08:27:55;;;;;;;;;;;8.50;90.70;;;9.09;56.68;97425.63;4990567;28;115868;-76
2022/11/23 08:30:22;;;;;;;;;;;8.50;90.60;;;9.07;56.15;97432.28;5032349;27;113586;-75
2022/11/23 08:32:49;;;;;;;;;;;8.50;90.70;;;9.05;56.18;97428.22;4997331;28;124126;-78
2022/11/23 08:35:15;;;;;;;;;;;8.50;90.40;;;9.03;56.07;97433.28;4999840;28;124190;-75
2022/11/23 08:37:42;;;;;;;;;;;8.50;90.40;;;9.02;56.49;97428.91;5000373;28;114423;-78
2022/11/23 08:40:09;;;;;;;;;;;8.50;90.40;;;9.06;56.60;97427.13;5035972;27;113245;-75
2022/11/23 08:42:35;;;;;;;;;;;8.60;90.50;;;9.10;56.17;97433.53;4999858;28;123586;-76
2022/11/23 08:45:04;;;;;;;;;;;8.60;90.50;;;9.14;56.70;97422.69;5020050;28;122987;-78
2022/11/23 08:47:30;;;;;;;;;;;8.50;90.40;;;9.18;56.27;97420.84;4996837;28;114829;-76
2022/11/23 08:49:57;;;;;;;;;;;8.70;90.40;;;9.19;56.26;97426.03;4999797;28;113752;-75
2022/11/23 08:52:24;;;;;;;;;;;8.70;90.40;;;9.21;56.10;97429.22;4993979;28;124267;-73
2022/11/23 08:54:50;;;;;;;;;;;10.60;90.60;;;9.23;56.06;97434.41;5026012;27;125485;-74
2022/11/23 08:57:17;;;;;;;;;;;8.70;90.30;;;9.26;55.80;97434.53;5014558;28;113280;-79
2022/11/23 08:59:43;;;;;;;;;;;8.70;90.20;;;9.27;55.94;97422.41;5029885;27;113666;-73
2022/11/23 09:02:13;;;;;;;;;;;8.70;90.20;;;9.33;55.89;97424.94;4996600;28;123796;-76
2022/11/23 09:04:43;;;;;;;;;;;8.80;90.20;;;9.37;55.84;97423.09;5029031;27;124383;-74
2022/11/23 09:07:10;;;;;;;;;;;8.80;90.20;;;9.40;55.65;97426.00;4998361;28;114311;-74
2022/11/23 09:09:36;;;;;;;;;;;8.90;90.20;;;9.41;55.24;97426.81;5030482;27;113626;-74
2022/11/23 09:12:03;;;;;;;;;;;8.90;90.00;;;9.40;54.75;97430.69;4996644;28;124255;-75
2022/11/23 09:14:29;;;;;;;;;;;8.90;89.60;;;9.40;54.86;97426.00;4994141;28;124278;-76
2022/11/23 09:16:55;;;;;;;;;;;8.90;89.70;;;9.42;54.94;97431.16;4990361;28;115378;-74
2022/11/23 09:19:22;;;;;;;;;;;8.90;89.50;;;9.45;54.79;97433.25;4994295;28;114321;-76
2022/11/23 09:21:48;;;;;;;;;;;8.90;89.50;;;9.47;54.72;97442.00;4992024;28;124177;-76
2022/11/23 09:24:15;;;;;;;;;;;9.00;89.40;;;9.50;54.20;97436.59;5032312;27;124647;-76
2022/11/23 09:26:41;;;;;;;;;;;9.00;89.30;;;9.56;54.64;97434.44;5009202;27;113537;-77
2022/11/23 09:29:08;;;;;;;;;;;9.00;89.90;;;9.60;54.31;97435.38;5004881;28;113429;-77
2022/11/23 09:31:35;;;;;;;;;;;9.10;89.20;;;9.65;54.51;97424.13;5004223;28;124146;-75
2022/11/23 09:34:02;;;;;;;;;;;9.10;89.20;;;9.70;53.95;97429.44;5033742;27;123835;-78
2022/11/23 09:36:29;;;;;;;;;;;9.10;88.80;;;9.71;53.63;97420.00;4995571;28;114643;-75
2022/11/23 09:38:55;;;;;;;;;;;9.20;88.40;;;9.74;53.47;97427.59;4999030;28;113521;-75
2022/11/23 09:41:30;;;;;;;;;;;9.20;88.20;;;9.79;53.22;97426.59;5031487;27;124112;-74
2022/11/23 09:44:04;;;;;;;;;;;9.20;87.80;;;9.81;52.81;97418.78;4997275;28;124379;-75
2022/11/23 09:46:40;;;;;;;;;;;9.30;87.50;;;9.85;53.23;97429.94;4996811;28;115087;-76
2022/11/23 09:49:20;;;;;;;;;;;9.30;87.60;;;9.90;52.99;97427.75;5034570;27;113100;-75
2022/11/23 09:51:47;;;;;;;;;;;9.30;87.30;;;9.97;52.29;97427.22;5012420;27;122957;-75
2022/11/23 09:54:32;;;;;;;;;;;9.40;87.10;;;10.03;52.69;97419.50;4991882;28;124728;-74
2022/11/23 09:56:58;;;;;;;;;;;9.40;87.10;;;10.08;52.46;97414.56;5034834;27;114530;-75
2022/11/23 09:59:40;;;;;;;;;;;9.50;87.10;;;10.17;51.98;97415.25;4998146;28;113476;-76
2022/11/23 10:02:22;;;;;;;;;;;9.50;86.80;;;10.28;52.22;97409.31;5019004;27;123651;-75
2022/11/23 10:04:51;;;;;;;;;;;9.60;86.60;;;10.35;52.21;97410.34;4977176;28;123175;-76
2022/11/23 10:07:21;;;;;;;;;;;9.70;86.70;;;10.46;52.06;97404.38;4998159;28;115332;-76
2022/11/23 10:09:56;;;;;;;;;;;9.80;86.70;;;10.57;51.82;97414.59;4999411;28;114916;-75
2022/11/23 10:12:52;;;;;;;;;;;9.90;86.50;;;10.65;50.61;97398.25;4999417;28;123857;-75
2022/11/23 10:15:21;;;;;;;;;;;10.00;84.10;;;10.67;50.85;97410.56;4994321;28;124054;-78
2022/11/23 10:18:03;;;;;;;;;;;10.00;84.10;;;10.73;50.62;97397.31;5002750;28;114288;-74
2022/11/23 10:20:49;;;;;;;;;;;10.10;84.10;;;10.80;50.72;97392.84;5003701;28;113778;-76
2022/11/23 10:23:30;;;;;;;;;;;10.20;84.10;;;10.88;50.43;97396.63;5038398;27;124400;-75
2022/11/23 10:25:59;;;;;;;;;;;10.20;83.70;;;10.95;50.07;97388.53;5040487;27;124097;-74
2022/11/23 10:28:29;;;;;;;;;;;10.30;83.40;;;11.03;50.29;97398.63;4998515;28;114564;-76
2022/11/23 10:31:14;;;;;;;;;;;10.30;83.50;;;11.14;49.86;97400.91;5032243;27;112956;-75
2022/11/23 10:33:52;;;;;;;;;;;10.50;83.10;;;11.25;49.56;97407.53;4993135;28;124267;-77
2022/11/23 10:36:18;;;;;;;;;;;10.60;83.10;;;11.32;49.30;97401.44;4989149;28;123741;-75
2022/11/23 10:38:48;;;;;;;;;;;10.70;82.50;;;11.42;49.31;97401.72;4988285;28;114290;-76
2022/11/23 10:41:17;;;;;;;;;;;10.80;82.70;;;11.56;48.99;97403.28;5037021;27;114505;-77
2022/11/23 10:44:08;;;;;;;;;;;10.90;82.70;;;11.68;48.44;97395.69;4987735;28;125040;-76
2022/11/23 10:46:35;;;;;;;;;;;11.00;82.40;;;11.79;48.19;97393.22;5003448;28;125146;-78
2022/11/23 10:49:44;;;;;;;;;;;11.10;82.10;;;11.90;48.40;97397.13;5006365;28;114755;-75
2022/11/23 10:52:44;;;;;;;;;;;11.20;81.90;;;12.04;48.33;97391.16;4969005;28;113378;-75
2022/11/23 10:55:12;;;;;;;;;;;11.30;81.80;;;12.17;48.10;97383.56;4928384;28;123961;-74
2022/11/23 10:57:44;;;;;;;;;;;11.40;81.80;;;12.33;47.45;97387.13;4933054;28;123752;-74
2022/11/23 11:00:13;;;;;;;;;;;11.60;81.60;;;12.47;47.32;97377.56;4915670;28;114498;-88
2022/11/23 11:02:42;;;;;;;;;;;11.70;81.00;;;12.57;46.40;97376.97;4931457;28;113966;-77
2022/11/23 11:05:36;;;;;;;;;;;13.30;81.40;;;12.68;46.49;97383.59;4928082;28;123673;-73
2022/11/23 11:08:12;;;;;;;;;;;11.90;79.70;;;12.83;46.60;97360.53;4914261;28;122912;-75
2022/11/23 11:10:45;;;;;;;;;;;12.10;80.20;;;13.00;46.24;97370.44;4951342;28;113427;-73
2022/11/23 11:13:29;;;;;;;;;;;12.20;80.30;;;13.21;46.12;97367.28;4928072;28;113579;-77
2022/11/23 11:16:03;;;;;;;;;;;12.40;80.00;;;13.36;45.56;97360.09;4933223;28;124399;-74
2022/11/23 11:18:32;;;;;;;;;;;12.50;79.30;;;13.48;45.71;97359.91;4950922;28;124147;-73
2022/11/23 11:21:25;;;;;;;;;;;12.60;79.20;;;13.69;45.34;97358.72;4927749;28;114283;-73
2022/11/23 11:23:59;;;;;;;;;;;12.80;79.20;;;13.91;44.83;97354.34;4990766;28;113856;-73
2022/11/23 11:26:26;;;;;;;;;;;13.00;79.00;;;14.09;44.48;97355.47;5014506;27;122371;-73
2022/11/23 11:29:04;;;;;;;;;;;13.20;78.60;;;14.26;44.01;97348.59;4992741;28;123476;-74
2022/11/23 11:31:59;;;;;;;;;;;13.40;78.00;;;14.46;43.81;97342.97;4991615;28;114592;-73
2022/11/23 11:34:42;;;;;;;;;;;13.60;77.70;;;14.63;43.32;97338.88;5002241;28;113859;-75